NJE17T EGLF-LFPB
Flight info
| Callsign | NJE17T |
|---|---|
| Flight time | 0h 58m |
| Altitude | 25000 |
| Route | GWC DCT BOGNA DCT HARDY/N0451F230 M605 XIDIL/N0463F250 UM605 PETAX UZ296 VELOL |
| Aircraft | C700/M-SBDGHM1RWXY/LB2 |
Departure
| Time | 2026-04-15 13:38 |
|---|---|
| Airport | Farnborough Airport (EGLF) |
Arrival
| Time | 2026-04-15 14:36 |
|---|---|
| Airport | Paris-Le Bourget International Airport (LFPB) |
| Time | Latitude | Longitude | Altitude | Speed | Heading |
|---|---|---|---|---|---|
| 2026-04-15 13:12 | 51.27810 | -0.78118 | 218 ft | 0 kts | 308° |
| 2026-04-15 13:25 | 51.27805 | -0.78109 | 218 ft | 2 kts | 308° |
| 2026-04-15 13:25 | 51.27800 | -0.78099 | 218 ft | 0 kts | 308° |
| 2026-04-15 13:31 | 51.27806 | -0.78104 | 218 ft | 2 kts | 339° |
| 2026-04-15 13:31 | 51.27820 | -0.78097 | 218 ft | 4 kts | 26° |
| 2026-04-15 13:31 | 51.27864 | -0.78032 | 218 ft | 12 kts | 47° |
| 2026-04-15 13:32 | 51.27935 | -0.77920 | 218 ft | 14 kts | 33° |
| 2026-04-15 13:32 | 51.27978 | -0.77889 | 218 ft | 0 kts | 21° |
| 2026-04-15 13:33 | 51.27979 | -0.77888 | 218 ft | 2 kts | 21° |
| 2026-04-15 13:33 | 51.28027 | -0.77861 | 217 ft | 13 kts | 18° |
| 2026-04-15 13:33 | 51.28090 | -0.77814 | 217 ft | 13 kts | 37° |
| 2026-04-15 13:33 | 51.28185 | -0.77704 | 217 ft | 20 kts | 35° |
| 2026-04-15 13:34 | 51.28205 | -0.77497 | 215 ft | 19 kts | 118° |
| 2026-04-15 13:34 | 51.28164 | -0.77323 | 215 ft | 17 kts | 107° |
| 2026-04-15 13:34 | 51.28128 | -0.77136 | 219 ft | 18 kts | 107° |
| 2026-04-15 13:34 | 51.28102 | -0.77006 | 221 ft | 19 kts | 107° |
| 2026-04-15 13:35 | 51.28063 | -0.76812 | 227 ft | 9 kts | 108° |
| 2026-04-15 13:35 | 51.28043 | -0.76716 | 230 ft | 10 kts | 108° |
| 2026-04-15 13:35 | 51.28038 | -0.76691 | 230 ft | 0 kts | 108° |
| 2026-04-15 13:36 | 51.28023 | -0.76616 | 229 ft | 12 kts | 107° |
| 2026-04-15 13:36 | 51.27980 | -0.76504 | 230 ft | 12 kts | 166° |
| 2026-04-15 13:37 | 51.27946 | -0.76534 | 231 ft | 0 kts | 243° |
| 2026-04-15 13:37 | 51.27942 | -0.76547 | 231 ft | 7 kts | 243° |
| 2026-04-15 13:37 | 51.27872 | -0.76761 | 228 ft | 41 kts | 242° |
| 2026-04-15 13:37 | 51.27609 | -0.77544 | 231 ft | 126 kts | 242° |
| 2026-04-15 13:38 | 51.27129 | -0.78964 | 1144 ft | 134 kts | 240° |
| 2026-04-15 13:38 | 51.26766 | -0.79820 | 3020 ft | 84 kts | 232° |
| 2026-04-15 13:38 | 51.26199 | -0.80891 | 2854 ft | 151 kts | 228° |
| 2026-04-15 13:38 | 51.25469 | -0.82077 | 3059 ft | 159 kts | 225° |
| 2026-04-15 13:39 | 51.24590 | -0.83406 | 3306 ft | 187 kts | 223° |
| 2026-04-15 13:39 | 51.23540 | -0.84766 | 4222 ft | 204 kts | 210° |
| 2026-04-15 13:39 | 51.22244 | -0.85495 | 5287 ft | 192 kts | 197° |
| 2026-04-15 13:39 | 51.21047 | -0.86082 | 5896 ft | 167 kts | 199° |
| 2026-04-15 13:40 | 51.19949 | -0.86749 | 6002 ft | 176 kts | 202° |
| 2026-04-15 13:40 | 51.18757 | -0.87473 | 6029 ft | 187 kts | 201° |
| 2026-04-15 13:40 | 51.17579 | -0.88251 | 6370 ft | 179 kts | 204° |
| 2026-04-15 13:40 | 51.16455 | -0.89099 | 6476 ft | 186 kts | 207° |
| 2026-04-15 13:41 | 51.15288 | -0.90147 | 6411 ft | 201 kts | 212° |
| 2026-04-15 13:41 | 51.14102 | -0.91530 | 6301 ft | 216 kts | 216° |
| 2026-04-15 13:41 | 51.12887 | -0.92947 | 6450 ft | 214 kts | 224° |
| 2026-04-15 13:41 | 51.12061 | -0.94763 | 6925 ft | 198 kts | 243° |
| 2026-04-15 13:42 | 51.11501 | -0.96749 | 7173 ft | 203 kts | 246° |
| 2026-04-15 13:42 | 51.10660 | -0.98630 | 7182 ft | 219 kts | 222° |
| 2026-04-15 13:42 | 51.09275 | -0.99901 | 7497 ft | 240 kts | 199° |
| 2026-04-15 13:42 | 51.07513 | -1.00166 | 7698 ft | 267 kts | 174° |
| 2026-04-15 13:43 | 51.05639 | -0.99709 | 8039 ft | 281 kts | 171° |
| 2026-04-15 13:43 | 51.03712 | -0.99198 | 8751 ft | 282 kts | 171° |
| 2026-04-15 13:43 | 51.01760 | -0.98727 | 9369 ft | 285 kts | 172° |
| 2026-04-15 13:43 | 50.99802 | -0.98187 | 10029 ft | 288 kts | 167° |
| 2026-04-15 13:44 | 50.97799 | -0.97405 | 10257 ft | 308 kts | 166° |
| 2026-04-15 13:44 | 50.95775 | -0.96141 | 10799 ft | 315 kts | 151° |
| 2026-04-15 13:44 | 50.94004 | -0.94095 | 11484 ft | 318 kts | 137° |
| 2026-04-15 13:44 | 50.92434 | -0.91602 | 12098 ft | 321 kts | 135° |
| 2026-04-15 13:45 | 50.90846 | -0.89091 | 12714 ft | 324 kts | 135° |
| 2026-04-15 13:45 | 50.89316 | -0.86452 | 13278 ft | 327 kts | 126° |
| 2026-04-15 13:45 | 50.88158 | -0.83344 | 13840 ft | 330 kts | 118° |
| 2026-04-15 13:47 | 50.80798 | -0.59999 | 17268 ft | 347 kts | 115° |
| 2026-04-15 13:47 | 50.79754 | -0.56538 | 17672 ft | 350 kts | 115° |
| 2026-04-15 13:47 | 50.78701 | -0.53059 | 18048 ft | 352 kts | 116° |
| 2026-04-15 13:48 | 50.77641 | -0.49566 | 18402 ft | 354 kts | 116° |
| 2026-04-15 13:48 | 50.76570 | -0.46044 | 18598 ft | 360 kts | 116° |
| 2026-04-15 13:48 | 50.75473 | -0.42434 | 18747 ft | 366 kts | 116° |
| 2026-04-15 13:48 | 50.74372 | -0.38820 | 19126 ft | 364 kts | 116° |
| 2026-04-15 13:49 | 50.73277 | -0.35229 | 19499 ft | 362 kts | 116° |
| 2026-04-15 13:49 | 50.72187 | -0.31665 | 19872 ft | 360 kts | 116° |
| 2026-04-15 13:49 | 50.71103 | -0.28119 | 20246 ft | 357 kts | 116° |
| 2026-04-15 13:49 | 50.70025 | -0.24602 | 20614 ft | 355 kts | 116° |
| 2026-04-15 13:50 | 50.68955 | -0.21113 | 20984 ft | 352 kts | 116° |
| 2026-04-15 13:50 | 50.67892 | -0.17646 | 21356 ft | 350 kts | 116° |
| 2026-04-15 13:50 | 50.66833 | -0.14202 | 21729 ft | 348 kts | 116° |
| 2026-04-15 13:50 | 50.65782 | -0.10787 | 22097 ft | 346 kts | 116° |
| 2026-04-15 13:51 | 50.64734 | -0.07387 | 22466 ft | 344 kts | 116° |
| 2026-04-15 13:51 | 50.63691 | -0.04008 | 22840 ft | 342 kts | 116° |
| 2026-04-15 13:51 | 50.62645 | -0.00627 | 22991 ft | 347 kts | 116° |
| 2026-04-15 13:51 | 50.61575 | 0.02832 | 22994 ft | 356 kts | 116° |
| 2026-04-15 13:52 | 50.60474 | 0.06384 | 23001 ft | 364 kts | 116° |
| 2026-04-15 13:52 | 50.59361 | 0.09969 | 23010 ft | 376 kts | 116° |
| 2026-04-15 13:52 | 50.58190 | 0.13734 | 23009 ft | 389 kts | 116° |
| 2026-04-15 13:52 | 50.56983 | 0.17614 | 23011 ft | 400 kts | 116° |
| 2026-04-15 13:53 | 50.55743 | 0.21589 | 23008 ft | 410 kts | 116° |
| 2026-04-15 13:53 | 50.54472 | 0.25657 | 23009 ft | 418 kts | 116° |
| 2026-04-15 13:53 | 50.53175 | 0.29802 | 23011 ft | 426 kts | 116° |
| 2026-04-15 13:53 | 50.51858 | 0.34003 | 23009 ft | 432 kts | 116° |
| 2026-04-15 13:54 | 50.50519 | 0.38270 | 23009 ft | 438 kts | 116° |
| 2026-04-15 13:54 | 50.49162 | 0.42583 | 23009 ft | 443 kts | 116° |
| 2026-04-15 13:54 | 50.47668 | 0.46817 | 22999 ft | 446 kts | 124° |
| 2026-04-15 13:54 | 50.45713 | 0.50603 | 22992 ft | 443 kts | 134° |
| 2026-04-15 13:55 | 50.43430 | 0.53769 | 22991 ft | 439 kts | 141° |
| 2026-04-15 13:55 | 50.41008 | 0.56801 | 22998 ft | 448 kts | 141° |
| 2026-04-15 13:55 | 50.38589 | 0.59844 | 23000 ft | 444 kts | 141° |
| 2026-04-15 13:55 | 50.36182 | 0.62880 | 23000 ft | 446 kts | 141° |
| 2026-04-15 13:56 | 50.33757 | 0.65926 | 23001 ft | 448 kts | 141° |
| 2026-04-15 13:56 | 50.31328 | 0.68969 | 23001 ft | 446 kts | 141° |
| 2026-04-15 13:56 | 50.28910 | 0.71998 | 23000 ft | 444 kts | 141° |
| 2026-04-15 13:56 | 50.26494 | 0.75021 | 22977 ft | 445 kts | 141° |
| 2026-04-15 13:57 | 50.24114 | 0.77995 | 22466 ft | 430 kts | 141° |
| 2026-04-15 13:57 | 50.21827 | 0.80850 | 21912 ft | 413 kts | 141° |
| 2026-04-15 13:57 | 50.19612 | 0.83612 | 21370 ft | 403 kts | 141° |
| 2026-04-15 13:57 | 50.17601 | 0.86655 | 20834 ft | 404 kts | 131° |
| 2026-04-15 13:58 | 50.15766 | 0.89967 | 20303 ft | 404 kts | 131° |
| 2026-04-15 13:58 | 50.13916 | 0.93255 | 19765 ft | 402 kts | 131° |
| 2026-04-15 13:58 | 50.12076 | 0.96504 | 19231 ft | 397 kts | 131° |
| 2026-04-15 13:58 | 50.10261 | 0.99728 | 18706 ft | 394 kts | 131° |
| 2026-04-15 13:59 | 50.08465 | 1.02920 | 18184 ft | 391 kts | 131° |
| 2026-04-15 13:59 | 50.06675 | 1.06090 | 17668 ft | 388 kts | 131° |
| 2026-04-15 13:59 | 50.04917 | 1.09197 | 17163 ft | 373 kts | 131° |
| 2026-04-15 13:59 | 50.03249 | 1.12145 | 16673 ft | 353 kts | 131° |
| 2026-04-15 14:00 | 50.01669 | 1.14933 | 16217 ft | 336 kts | 131° |
| 2026-04-15 14:00 | 50.00154 | 1.17601 | 15781 ft | 322 kts | 131° |
| 2026-04-15 14:00 | 49.98699 | 1.20165 | 15362 ft | 311 kts | 131° |
| 2026-04-15 14:00 | 49.97295 | 1.22633 | 14959 ft | 308 kts | 131° |
| 2026-04-15 14:01 | 49.94445 | 1.27622 | 14138 ft | 310 kts | 133° |
| 2026-04-15 14:01 | 49.92774 | 1.29709 | 13732 ft | 308 kts | 148° |
| 2026-04-15 14:01 | 49.90945 | 1.31415 | 13337 ft | 305 kts | 149° |
| 2026-04-15 14:02 | 49.89135 | 1.33115 | 12940 ft | 303 kts | 149° |
| 2026-04-15 14:02 | 49.87317 | 1.34837 | 12543 ft | 301 kts | 149° |
| 2026-04-15 14:02 | 49.85537 | 1.36513 | 12152 ft | 299 kts | 149° |
| 2026-04-15 14:02 | 49.83780 | 1.38164 | 12006 ft | 290 kts | 149° |
| 2026-04-15 14:03 | 49.82071 | 1.39768 | 12003 ft | 295 kts | 149° |
| 2026-04-15 14:03 | 49.80293 | 1.41436 | 12011 ft | 300 kts | 149° |
| 2026-04-15 14:03 | 49.78510 | 1.43109 | 12008 ft | 300 kts | 149° |
| 2026-04-15 14:03 | 49.76731 | 1.44776 | 12008 ft | 298 kts | 149° |
| 2026-04-15 14:04 | 49.74961 | 1.46434 | 12005 ft | 297 kts | 149° |
| 2026-04-15 14:04 | 49.73186 | 1.48093 | 12006 ft | 299 kts | 149° |
| 2026-04-15 14:04 | 49.71391 | 1.49729 | 12004 ft | 300 kts | 153° |
| 2026-04-15 14:04 | 49.69427 | 1.50788 | 11998 ft | 300 kts | 166° |
| 2026-04-15 14:05 | 49.67409 | 1.51602 | 11956 ft | 300 kts | 165° |
| 2026-04-15 14:05 | 49.65373 | 1.52453 | 11592 ft | 304 kts | 165° |
| 2026-04-15 14:05 | 49.63353 | 1.53298 | 11218 ft | 297 kts | 165° |
| 2026-04-15 14:05 | 49.61376 | 1.54116 | 10836 ft | 292 kts | 165° |
| 2026-04-15 14:06 | 49.59423 | 1.54921 | 10460 ft | 289 kts | 165° |
| 2026-04-15 14:06 | 49.57485 | 1.55721 | 10085 ft | 289 kts | 165° |
| 2026-04-15 14:06 | 49.55548 | 1.56523 | 9710 ft | 288 kts | 165° |
| 2026-04-15 14:06 | 49.53617 | 1.57320 | 9336 ft | 286 kts | 165° |
| 2026-04-15 14:07 | 49.51724 | 1.58101 | 8959 ft | 277 kts | 165° |
| 2026-04-15 14:07 | 49.49892 | 1.58855 | 8571 ft | 269 kts | 165° |
| 2026-04-15 14:07 | 49.48103 | 1.59592 | 8194 ft | 263 kts | 165° |
| 2026-04-15 14:07 | 49.46383 | 1.60464 | 7804 ft | 259 kts | 152° |
| 2026-04-15 14:08 | 49.45117 | 1.62361 | 7403 ft | 256 kts | 120° |
| 2026-04-15 14:08 | 49.44618 | 1.64955 | 7033 ft | 253 kts | 97° |
| 2026-04-15 14:08 | 49.44464 | 1.67569 | 7006 ft | 239 kts | 94° |
| 2026-04-15 14:08 | 49.44352 | 1.70119 | 7000 ft | 242 kts | 94° |
| 2026-04-15 14:09 | 49.44244 | 1.72720 | 7006 ft | 246 kts | 94° |
| 2026-04-15 14:09 | 49.44135 | 1.75351 | 7010 ft | 247 kts | 94° |
| 2026-04-15 14:09 | 49.44058 | 1.77987 | 7004 ft | 246 kts | 90° |
| 2026-04-15 14:09 | 49.44077 | 1.80617 | 7004 ft | 246 kts | 89° |
| 2026-04-15 14:10 | 49.44114 | 1.83234 | 7003 ft | 245 kts | 89° |
| 2026-04-15 14:10 | 49.44154 | 1.85855 | 7005 ft | 245 kts | 89° |
| 2026-04-15 14:10 | 49.44193 | 1.88469 | 7003 ft | 245 kts | 89° |
| 2026-04-15 14:10 | 49.44180 | 1.91079 | 6993 ft | 244 kts | 97° |
| 2026-04-15 14:11 | 49.43901 | 1.93655 | 6990 ft | 245 kts | 96° |
| 2026-04-15 14:11 | 49.43838 | 1.96275 | 6997 ft | 247 kts | 90° |
| 2026-04-15 14:11 | 49.43825 | 1.98919 | 6995 ft | 247 kts | 91° |
| 2026-04-15 14:11 | 49.43796 | 2.01525 | 7002 ft | 247 kts | 91° |
| 2026-04-15 14:12 | 49.43763 | 2.04162 | 6999 ft | 246 kts | 91° |
| 2026-04-15 14:12 | 49.43733 | 2.06782 | 6998 ft | 245 kts | 91° |
| 2026-04-15 14:12 | 49.43709 | 2.09400 | 6998 ft | 245 kts | 91° |
| 2026-04-15 14:12 | 49.43688 | 2.12009 | 6997 ft | 244 kts | 91° |
| 2026-04-15 14:13 | 49.43667 | 2.14618 | 6998 ft | 245 kts | 91° |
| 2026-04-15 14:13 | 49.43636 | 2.17242 | 6997 ft | 246 kts | 93° |
| 2026-04-15 14:13 | 49.43333 | 2.19819 | 6989 ft | 246 kts | 105° |
| 2026-04-15 14:13 | 49.42838 | 2.22343 | 6995 ft | 247 kts | 107° |
| 2026-04-15 14:14 | 49.42321 | 2.24861 | 6995 ft | 247 kts | 108° |
| 2026-04-15 14:14 | 49.41802 | 2.27372 | 6994 ft | 246 kts | 108° |
| 2026-04-15 14:14 | 49.41283 | 2.29876 | 6996 ft | 246 kts | 108° |
| 2026-04-15 14:14 | 49.40766 | 2.32373 | 6995 ft | 246 kts | 108° |
| 2026-04-15 14:15 | 49.40248 | 2.34872 | 6995 ft | 245 kts | 108° |
| 2026-04-15 14:15 | 49.39731 | 2.37364 | 6992 ft | 245 kts | 108° |
| 2026-04-15 14:15 | 49.39216 | 2.39847 | 6992 ft | 244 kts | 108° |
| 2026-04-15 14:15 | 49.38700 | 2.42329 | 6990 ft | 244 kts | 108° |
| 2026-04-15 14:16 | 49.38183 | 2.44814 | 6937 ft | 247 kts | 108° |
| 2026-04-15 14:16 | 49.37654 | 2.47359 | 6632 ft | 251 kts | 108° |
| 2026-04-15 14:16 | 49.37125 | 2.49906 | 6232 ft | 250 kts | 108° |
| 2026-04-15 14:16 | 49.36598 | 2.52433 | 5831 ft | 249 kts | 108° |
| 2026-04-15 14:17 | 49.36074 | 2.54950 | 5426 ft | 247 kts | 108° |
| 2026-04-15 14:17 | 49.35552 | 2.57453 | 5093 ft | 244 kts | 108° |
| 2026-04-15 14:17 | 49.35040 | 2.59911 | 4789 ft | 240 kts | 108° |
| 2026-04-15 14:17 | 49.34534 | 2.62337 | 4490 ft | 237 kts | 108° |
| 2026-04-15 14:18 | 49.34033 | 2.64732 | 4185 ft | 235 kts | 108° |
| 2026-04-15 14:18 | 49.33538 | 2.67104 | 3885 ft | 232 kts | 108° |
| 2026-04-15 14:18 | 49.33054 | 2.69429 | 3680 ft | 224 kts | 108° |
| 2026-04-15 14:18 | 49.32592 | 2.71642 | 3459 ft | 212 kts | 108° |
| 2026-04-15 14:19 | 49.32152 | 2.73743 | 3243 ft | 203 kts | 108° |
| 2026-04-15 14:19 | 49.31729 | 2.75771 | 3037 ft | 197 kts | 108° |
| 2026-04-15 14:19 | 49.31262 | 2.77709 | 2820 ft | 192 kts | 120° |
| 2026-04-15 14:19 | 49.30471 | 2.79264 | 2811 ft | 181 kts | 132° |
| 2026-04-15 14:20 | 49.29624 | 2.80734 | 2816 ft | 187 kts | 131° |
| 2026-04-15 14:20 | 49.28753 | 2.82242 | 2826 ft | 190 kts | 132° |
| 2026-04-15 14:20 | 49.27876 | 2.83765 | 2819 ft | 191 kts | 131° |
| 2026-04-15 14:20 | 49.26998 | 2.85275 | 2825 ft | 189 kts | 132° |
| 2026-04-15 14:21 | 49.26418 | 2.86272 | 2818 ft | 189 kts | 132° |
| 2026-04-15 14:21 | 49.25549 | 2.87770 | 2822 ft | 188 kts | 132° |
| 2026-04-15 14:21 | 49.24677 | 2.89275 | 2824 ft | 190 kts | 132° |
| 2026-04-15 14:21 | 49.23800 | 2.90787 | 2820 ft | 189 kts | 132° |
| 2026-04-15 14:22 | 49.22927 | 2.92291 | 2819 ft | 189 kts | 132° |
| 2026-04-15 14:22 | 49.22053 | 2.93800 | 2818 ft | 189 kts | 132° |
| 2026-04-15 14:22 | 49.21179 | 2.95307 | 2818 ft | 189 kts | 132° |
| 2026-04-15 14:22 | 49.20303 | 2.96814 | 2823 ft | 191 kts | 132° |
| 2026-04-15 14:23 | 49.19425 | 2.98329 | 2821 ft | 189 kts | 132° |
| 2026-04-15 14:23 | 49.18557 | 2.99823 | 2825 ft | 189 kts | 132° |
| 2026-04-15 14:23 | 49.17680 | 3.01331 | 2822 ft | 190 kts | 132° |
| 2026-04-15 14:23 | 49.16807 | 3.02837 | 2820 ft | 188 kts | 132° |
| 2026-04-15 14:24 | 49.15936 | 3.04329 | 2819 ft | 188 kts | 132° |
| 2026-04-15 14:24 | 49.15068 | 3.05823 | 2820 ft | 188 kts | 132° |
| 2026-04-15 14:24 | 49.14148 | 3.07241 | 2810 ft | 188 kts | 145° |
| 2026-04-15 14:24 | 49.12938 | 3.07941 | 2810 ft | 187 kts | 174° |
| 2026-04-15 14:25 | 49.11639 | 3.07955 | 2824 ft | 187 kts | 182° |
| 2026-04-15 14:25 | 49.10339 | 3.07909 | 2824 ft | 186 kts | 182° |
| 2026-04-15 14:25 | 49.09090 | 3.07863 | 2823 ft | 182 kts | 182° |
| 2026-04-15 14:25 | 49.07797 | 3.07816 | 2828 ft | 185 kts | 182° |
| 2026-04-15 14:26 | 49.06504 | 3.07767 | 2818 ft | 186 kts | 182° |
| 2026-04-15 14:26 | 49.05207 | 3.07720 | 2821 ft | 187 kts | 182° |
| 2026-04-15 14:26 | 49.03902 | 3.07670 | 2825 ft | 188 kts | 182° |
| 2026-04-15 14:26 | 49.02620 | 3.07404 | 2794 ft | 187 kts | 204° |
| 2026-04-15 14:27 | 49.01717 | 3.06057 | 2819 ft | 185 kts | 239° |
| 2026-04-15 14:27 | 49.01168 | 3.04296 | 2826 ft | 187 kts | 245° |
| 2026-04-15 14:27 | 49.00616 | 3.02485 | 2821 ft | 185 kts | 245° |
| 2026-04-15 14:27 | 49.00084 | 3.00733 | 2823 ft | 185 kts | 245° |
| 2026-04-15 14:28 | 48.99576 | 2.98890 | 2816 ft | 186 kts | 253° |
| 2026-04-15 14:28 | 48.99377 | 2.96981 | 2812 ft | 185 kts | 264° |
| 2026-04-15 14:28 | 48.99246 | 2.95029 | 2812 ft | 185 kts | 264° |
| 2026-04-15 14:28 | 48.99144 | 2.93075 | 2812 ft | 185 kts | 266° |
| 2026-04-15 14:29 | 48.99036 | 2.91123 | 2813 ft | 185 kts | 264° |
| 2026-04-15 14:29 | 48.98932 | 2.89164 | 2818 ft | 186 kts | 266° |
| 2026-04-15 14:29 | 48.98824 | 2.87202 | 2817 ft | 187 kts | 264° |
| 2026-04-15 14:29 | 48.98716 | 2.85230 | 2814 ft | 186 kts | 266° |
| 2026-04-15 14:30 | 48.98613 | 2.83265 | 2817 ft | 186 kts | 265° |
| 2026-04-15 14:30 | 48.98506 | 2.81293 | 2820 ft | 187 kts | 265° |
| 2026-04-15 14:30 | 48.98398 | 2.79335 | 2816 ft | 185 kts | 265° |
| 2026-04-15 14:30 | 48.98292 | 2.77389 | 2812 ft | 185 kts | 265° |
| 2026-04-15 14:31 | 48.98187 | 2.75434 | 2817 ft | 186 kts | 265° |
| 2026-04-15 14:31 | 48.98080 | 2.73462 | 2815 ft | 186 kts | 265° |
| 2026-04-15 14:31 | 48.97973 | 2.71514 | 2813 ft | 184 kts | 265° |
| 2026-04-15 14:31 | 48.97867 | 2.69556 | 2815 ft | 187 kts | 265° |
| 2026-04-15 14:32 | 48.97761 | 2.67590 | 2817 ft | 186 kts | 265° |
| 2026-04-15 14:32 | 48.97652 | 2.65623 | 2818 ft | 187 kts | 265° |
| 2026-04-15 14:32 | 48.97543 | 2.63655 | 2823 ft | 186 kts | 265° |
| 2026-04-15 14:32 | 48.97435 | 2.61695 | 2818 ft | 185 kts | 265° |
| 2026-04-15 14:33 | 48.97328 | 2.59719 | 2643 ft | 188 kts | 265° |
| 2026-04-15 14:33 | 48.97226 | 2.57825 | 2355 ft | 170 kts | 265° |
| 2026-04-15 14:33 | 48.97132 | 2.56132 | 2043 ft | 152 kts | 265° |
| 2026-04-15 14:33 | 48.97048 | 2.54582 | 1737 ft | 143 kts | 265° |
| 2026-04-15 14:34 | 48.96967 | 2.53092 | 1410 ft | 141 kts | 265° |
| 2026-04-15 14:34 | 48.96891 | 2.51707 | 1138 ft | 130 kts | 265° |
| 2026-04-15 14:34 | 48.96821 | 2.50396 | 958 ft | 122 kts | 265° |
| 2026-04-15 14:34 | 48.96751 | 2.49124 | 799 ft | 119 kts | 265° |
| 2026-04-15 14:35 | 48.96683 | 2.47870 | 646 ft | 119 kts | 265° |
| 2026-04-15 14:35 | 48.96616 | 2.46613 | 490 ft | 119 kts | 265° |
| 2026-04-15 14:35 | 48.96547 | 2.45390 | 321 ft | 114 kts | 265° |
| 2026-04-15 14:35 | 48.96488 | 2.44206 | 182 ft | 107 kts | 265° |
| 2026-04-15 14:36 | 48.96442 | 2.43363 | 165 ft | 39 kts | 264° |
| 2026-04-15 14:36 | 48.96393 | 2.43158 | 163 ft | 18 kts | 190° |
| 2026-04-15 14:36 | 48.96254 | 2.43202 | 158 ft | 21 kts | 168° |
| 2026-04-15 14:36 | 48.96109 | 2.43250 | 156 ft | 23 kts | 167° |
| 2026-04-15 14:37 | 48.95980 | 2.43295 | 156 ft | 18 kts | 167° |
| 2026-04-15 14:37 | 48.95888 | 2.43360 | 155 ft | 15 kts | 117° |
| 2026-04-15 14:37 | 48.95843 | 2.43514 | 157 ft | 18 kts | 114° |
| 2026-04-15 14:37 | 48.95799 | 2.43658 | 151 ft | 9 kts | 115° |
| 2026-04-15 14:38 | 48.95757 | 2.43679 | 151 ft | 9 kts | 205° |
| 2026-04-15 14:38 | 48.95681 | 2.43624 | 150 ft | 15 kts | 205° |
| 2026-04-15 14:38 | 48.95572 | 2.43549 | 150 ft | 19 kts | 204° |
| 2026-04-15 14:38 | 48.95453 | 2.43465 | 150 ft | 20 kts | 205° |
| 2026-04-15 14:39 | 48.95330 | 2.43380 | 150 ft | 16 kts | 205° |
| 2026-04-15 14:39 | 48.95241 | 2.43320 | 149 ft | 15 kts | 192° |
| 2026-04-15 14:39 | 48.95186 | 2.43401 | 147 ft | 13 kts | 115° |
| 2026-04-15 14:39 | 48.95144 | 2.43537 | 147 ft | 14 kts | 115° |
| 2026-04-15 14:40 | 48.95091 | 2.43586 | 146 ft | 11 kts | 195° |
| 2026-04-15 14:40 | 48.95086 | 2.43583 | 146 ft | 0 kts | 204° |